Главная страница
METAR-TAF:

METAR-TAF

Аэропорты :

Саннесшёэн, Норвегия

широта: 65-58N, долгота: 012-28E, высота над уровнем моря: 1 м

Текущие метеонаблюдения

Эта сводка был подготовлена 29 минут назад, в 09:20 UTC
Ветер 10 Узел от южный-юго-западный
Температура 15°C
Влажность 94%
Давление 1015 hPa
Видимость 10 км и более
небольшая облачность на высоте 400 фута
Отдельные облака на высоте 800 фута
Рассеянная облачность на высоте 2600 фута
дождь

METAR: ENST 060920Z 20010KT 9999 RA FEW004 SCT008 BKN026 15/14 Q1015 RMK WIND 300FT 20013KT

Время: 11:49 (09:49 UTC)


TAF: отсутствует

Метеонаблюдения и прогнозы для более 4000 аэропортов (сводки METAR и TAF).

Имеющиеся станции представлены на карте желтыми и красными точками.

Чтобы увидеть название станции, наведите на нее мышь.

Затем щелкните, чтобы увидеть метеонаблюдения и метеопрогнозы.

Управление картой: чтобы увеличить масштаб, щелкните зеленые кнопки с черным крестиком; чтобы уменьшить масштаб, щелкните зеленую кнопку с тире; для просмотра соседних карт щелкайте зеленые стрелки.


METAR-TAF: